Camden, AR

1:10 PM CDT on October 31, 2014 (GMT -0500)
Monticello Municipal-Ellis | Change Station
CLOSE
Current Station
Airport
Location: Monticello,
Elevation: 269 ft
Nearby Weather Stations
Active Advisory: Lake Wind Advisory

Elev 269 ft 33.64 °N, 91.76 °W | Updated 17 minutes ago

Clear
Clear
63 °F
Feels Like 63 °F
N
10
Wind Variable Wind from North
Gusts 17 mph

Today
High -- | Low -- °F
--% Chance of Precip.
Yesterday
High -- | Low -- °F
Precip. -- in
7:29 AM 6:19 PM
First Quarter, 57% visible
Pressure 30.16 in
Visibility 10.0 miles
Clouds Few 4100 ft
Dew Point 44 °F
Humidity 50%
Rainfall 0.00 in
Snow Depth Not available.
UV 5 out of 12
Pollen 2.70 out of 12
Air Quality Not available.
Flu Activity Not available.
METAR KLLQ 311753Z AUTO 35009G15KT 330V030 10SM FEW041 17/07 A3017 RMK AO2 RAB09E31 SLP213 P0000 60000 T01720067 10178 20111 50006

More Conditions Fewer Conditions

Pressure 30.16 in
Visibility 10.0 miles
Clouds Few 4100 ft
Dew Point 44 °F
Humidity 50%
Rainfall 0.00 in
Snow Depth Not available.
UV 5 out of 12
Pollen 2.70 out of 12
Air Quality Not available.
Flu Activity Not available.
METAR KLLQ 311753Z AUTO 35009G15KT 330V030 10SM FEW041 17/07 A3017 RMK AO2 RAB09E31 SLP213 P0000 60000 T01720067 10178 20111 50006

More Conditions Fewer Conditions

10-Day Weather Forecast

Almanac

Astronomy

Oct. 31, 2014 Rise Set
Actual Time
Civil Twilight
Nautical Twilight
Astronomical Twilight
Moon
Length of Visible Light
Length of Day
Tomorrow will be .
, % of the Moon is Illuminated

Today's Extremes

State Highs State Lows

Community

WunderPhotos

Upload Photos

1,766,683 photos uploaded!

WunderBlogs® & News

Nearby

Air Quality

  Air Quality AQ Index Pollutant
Not available.

Snow Depth

Station Depth Elevation

Earthquake Activity

City Distance Mag. Time & Date
Minimum magnitude displayed is 2.5.

Coastal Water Temperatures

Place Temperature

Nearby Weather Stations